sensor_id;sensor_type;location;lat;lon;timestamp;pressure;altitude;pressure_sealevel;temperature;humidity
6204;BME280;3135;42.602;23.468;2023-04-09T00:02:12;92701.63;;;4.69;100.00
6204;BME280;3135;42.602;23.468;2023-04-09T00:04:37;92700.56;;;4.70;100.00
6204;BME280;3135;42.602;23.468;2023-04-09T00:07:02;92698.09;;;4.53;100.00
6204;BME280;3135;42.602;23.468;2023-04-09T00:09:28;92710.00;;;4.56;100.00
6204;BME280;3135;42.602;23.468;2023-04-09T00:11:53;92696.38;;;4.37;100.00
6204;BME280;3135;42.602;23.468;2023-04-09T00:14:19;92724.28;;;4.55;100.00
6204;BME280;3135;42.602;23.468;2023-04-09T00:16:44;92707.81;;;4.43;100.00
6204;BME280;3135;42.602;23.468;2023-04-09T00:19:09;92698.06;;;4.48;100.00
6204;BME280;3135;42.602;23.468;2023-04-09T00:21:36;92697.22;;;4.43;100.00
6204;BME280;3135;42.602;23.468;2023-04-09T00:24:01;92717.94;;;4.56;100.00
6204;BME280;3135;42.602;23.468;2023-04-09T00:26:27;92709.69;;;4.47;100.00
6204;BME280;3135;42.602;23.468;2023-04-09T00:28:52;92695.72;;;4.20;100.00
6204;BME280;3135;42.602;23.468;2023-04-09T00:31:18;92725.66;;;4.25;100.00
6204;BME280;3135;42.602;23.468;2023-04-09T00:33:43;92711.59;;;4.20;100.00
6204;BME280;3135;42.602;23.468;2023-04-09T00:36:09;92699.91;;;4.16;100.00
6204;BME280;3135;42.602;23.468;2023-04-09T00:38:34;92687.94;;;4.08;100.00
6204;BME280;3135;42.602;23.468;2023-04-09T00:41:00;92697.53;;;4.14;100.00
6204;BME280;3135;42.602;23.468;2023-04-09T00:43:25;92699.84;;;4.05;100.00
6204;BME280;3135;42.602;23.468;2023-04-09T00:45:51;92706.78;;;4.17;100.00
6204;BME280;3135;42.602;23.468;2023-04-09T00:48:16;92697.69;;;4.02;100.00
6204;BME280;3135;42.602;23.468;2023-04-09T00:50:42;92694.47;;;3.95;100.00
6204;BME280;3135;42.602;23.468;2023-04-09T00:53:08;92685.47;;;3.96;100.00
6204;BME280;3135;42.602;23.468;2023-04-09T00:55:35;92701.50;;;4.17;100.00
6204;BME280;3135;42.602;23.468;2023-04-09T00:58:00;92699.25;;;4.30;100.00
6204;BME280;3135;42.602;23.468;2023-04-09T01:00:26;92704.06;;;4.06;100.00
6204;BME280;3135;42.602;23.468;2023-04-09T01:02:52;92698.09;;;3.89;100.00
6204;BME280;3135;42.602;23.468;2023-04-09T01:05:20;92709.81;;;3.98;100.00
6204;BME280;3135;42.602;23.468;2023-04-09T01:08:12;92708.59;;;4.11;100.00
6204;BME280;3135;42.602;23.468;2023-04-09T01:10:49;92706.16;;;4.04;100.00
6204;BME280;3135;42.602;23.468;2023-04-09T01:13:34;92704.91;;;3.85;100.00
6204;BME280;3135;42.602;23.468;2023-04-09T01:16:04;92703.72;;;3.71;100.00
6204;BME280;3135;42.602;23.468;2023-04-09T01:18:43;92701.84;;;3.93;100.00
6204;BME280;3135;42.602;23.468;2023-04-09T01:21:13;92709.84;;;4.03;100.00
6204;BME280;3135;42.602;23.468;2023-04-09T01:23:51;92715.09;;;3.98;100.00
6204;BME280;3135;42.602;23.468;2023-04-09T01:29:23;92715.50;;;3.58;100.00
6204;BME280;3135;42.602;23.468;2023-04-09T01:31:50;92702.16;;;3.48;100.00
6204;BME280;3135;42.602;23.468;2023-04-09T01:34:16;92685.03;;;3.50;100.00
6204;BME280;3135;42.602;23.468;2023-04-09T01:36:47;92711.81;;;3.37;100.00
6204;BME280;3135;42.602;23.468;2023-04-09T01:39:15;92706.97;;;3.29;100.00
6204;BME280;3135;42.602;23.468;2023-04-09T01:41:40;92702.66;;;3.45;100.00
6204;BME280;3135;42.602;23.468;2023-04-09T01:44:07;92704.94;;;3.58;100.00
6204;BME280;3135;42.602;23.468;2023-04-09T01:46:34;92696.38;;;3.51;100.00
6204;BME280;3135;42.602;23.468;2023-04-09T01:49:01;92706.06;;;3.40;100.00
6204;BME280;3135;42.602;23.468;2023-04-09T01:51:28;92708.00;;;3.50;100.00
6204;BME280;3135;42.602;23.468;2023-04-09T01:53:55;92695.22;;;3.20;100.00
6204;BME280;3135;42.602;23.468;2023-04-09T01:56:20;92698.94;;;3.19;100.00
6204;BME280;3135;42.602;23.468;2023-04-09T01:58:46;92712.38;;;3.39;100.00
6204;BME280;3135;42.602;23.468;2023-04-09T02:01:15;92711.56;;;3.39;100.00
6204;BME280;3135;42.602;23.468;2023-04-09T02:03:47;92715.94;;;3.50;100.00
6204;BME280;3135;42.602;23.468;2023-04-09T02:08:46;92707.56;;;3.58;100.00
6204;BME280;3135;42.602;23.468;2023-04-09T02:11:13;92725.38;;;3.68;100.00
6204;BME280;3135;42.602;23.468;2023-04-09T02:13:41;92711.88;;;3.42;100.00
6204;BME280;3135;42.602;23.468;2023-04-09T02:16:08;92714.09;;;3.50;100.00
6204;BME280;3135;42.602;23.468;2023-04-09T02:18:35;92711.44;;;3.50;100.00
6204;BME280;3135;42.602;23.468;2023-04-09T02:21:02;92708.59;;;3.57;100.00
6204;BME280;3135;42.602;23.468;2023-04-09T02:23:28;92699.28;;;3.49;100.00
6204;BME280;3135;42.602;23.468;2023-04-09T02:25:56;92698.97;;;3.24;100.00
6204;BME280;3135;42.602;23.468;2023-04-09T02:28:22;92698.56;;;3.32;100.00
6204;BME280;3135;42.602;23.468;2023-04-09T02:30:47;92691.84;;;3.46;100.00
6204;BME280;3135;42.602;23.468;2023-04-09T02:33:12;92705.31;;;3.45;100.00
6204;BME280;3135;42.602;23.468;2023-04-09T02:35:38;92704.47;;;3.17;100.00
6204;BME280;3135;42.602;23.468;2023-04-09T02:38:03;92697.31;;;2.96;100.00
6204;BME280;3135;42.602;23.468;2023-04-09T02:40:29;92709.50;;;3.19;100.00
6204;BME280;3135;42.602;23.468;2023-04-09T02:42:54;92707.63;;;3.19;100.00
6204;BME280;3135;42.602;23.468;2023-04-09T02:45:20;92696.16;;;3.08;100.00
6204;BME280;3135;42.602;23.468;2023-04-09T02:47:45;92693.59;;;2.92;100.00
6204;BME280;3135;42.602;23.468;2023-04-09T02:50:11;92692.47;;;3.10;100.00
6204;BME280;3135;42.602;23.468;2023-04-09T02:52:36;92705.69;;;3.10;100.00
6204;BME280;3135;42.602;23.468;2023-04-09T02:55:02;92697.22;;;3.07;100.00
6204;BME280;3135;42.602;23.468;2023-04-09T02:57:27;92696.47;;;3.12;100.00
6204;BME280;3135;42.602;23.468;2023-04-09T02:59:53;92669.72;;;3.03;100.00
6204;BME280;3135;42.602;23.468;2023-04-09T03:02:18;92678.00;;;3.12;100.00
6204;BME280;3135;42.602;23.468;2023-04-09T03:04:43;92702.03;;;3.11;100.00
6204;BME280;3135;42.602;23.468;2023-04-09T03:07:10;92699.28;;;2.84;100.00
6204;BME280;3135;42.602;23.468;2023-04-09T03:09:35;92712.13;;;3.19;100.00
6204;BME280;3135;42.602;23.468;2023-04-09T03:12:00;92686.09;;;3.05;100.00
6204;BME280;3135;42.602;23.468;2023-04-09T03:14:26;92682.66;;;3.05;100.00
6204;BME280;3135;42.602;23.468;2023-04-09T03:16:52;92691.38;;;3.05;100.00
6204;BME280;3135;42.602;23.468;2023-04-09T03:19:17;92685.88;;;3.07;100.00
6204;BME280;3135;42.602;23.468;2023-04-09T03:21:43;92705.06;;;3.02;100.00
6204;BME280;3135;42.602;23.468;2023-04-09T03:24:09;92696.16;;;3.08;100.00
6204;BME280;3135;42.602;23.468;2023-04-09T03:26:34;92694.09;;;3.11;100.00
6204;BME280;3135;42.602;23.468;2023-04-09T03:29:03;92703.03;;;3.10;100.00
6204;BME280;3135;42.602;23.468;2023-04-09T03:31:29;92692.78;;;3.13;100.00
6204;BME280;3135;42.602;23.468;2023-04-09T03:33:55;92691.16;;;3.07;100.00
6204;BME280;3135;42.602;23.468;2023-04-09T03:36:20;92692.47;;;3.10;100.00
6204;BME280;3135;42.602;23.468;2023-04-09T03:38:46;92694.22;;;3.21;100.00
6204;BME280;3135;42.602;23.468;2023-04-09T03:41:11;92703.84;;;3.10;100.00
6204;BME280;3135;42.602;23.468;2023-04-09T03:43:37;92703.03;;;3.10;100.00
6204;BME280;3135;42.602;23.468;2023-04-09T03:46:11;92709.44;;;3.14;100.00
6204;BME280;3135;42.602;23.468;2023-04-09T03:48:36;92717.41;;;3.41;100.00
6204;BME280;3135;42.602;23.468;2023-04-09T03:51:02;92718.69;;;3.60;100.00
6204;BME280;3135;42.602;23.468;2023-04-09T03:53:27;92714.41;;;3.54;100.00
6204;BME280;3135;42.602;23.468;2023-04-09T03:55:52;92717.66;;;3.39;100.00
6204;BME280;3135;42.602;23.468;2023-04-09T03:58:18;92693.09;;;3.17;100.00
6204;BME280;3135;42.602;23.468;2023-04-09T04:00:43;92707.97;;;3.23;100.00
6204;BME280;3135;42.602;23.468;2023-04-09T04:03:10;92724.72;;;3.33;100.00
6204;BME280;3135;42.602;23.468;2023-04-09T04:05:36;92709.69;;;3.34;100.00
6204;BME280;3135;42.602;23.468;2023-04-09T04:08:01;92709.06;;;3.27;100.00
6204;BME280;3135;42.602;23.468;2023-04-09T04:10:27;92712.06;;;3.14;100.00
6204;BME280;3135;42.602;23.468;2023-04-09T04:12:52;92714.03;;;3.23;100.00
6204;BME280;3135;42.602;23.468;2023-04-09T04:15:17;92713.59;;;3.31;100.00
6204;BME280;3135;42.602;23.468;2023-04-09T04:17:44;92719.19;;;3.35;100.00
6204;BME280;3135;42.602;23.468;2023-04-09T04:20:10;92716.94;;;3.22;100.00
6204;BME280;3135;42.602;23.468;2023-04-09T04:22:35;92715.03;;;3.17;100.00
6204;BME280;3135;42.602;23.468;2023-04-09T04:25:04;92711.38;;;3.23;100.00
6204;BME280;3135;42.602;23.468;2023-04-09T04:27:30;92726.38;;;3.18;100.00
6204;BME280;3135;42.602;23.468;2023-04-09T04:29:56;92705.06;;;3.24;100.00
6204;BME280;3135;42.602;23.468;2023-04-09T04:32:23;92696.47;;;3.12;100.00
6204;BME280;3135;42.602;23.468;2023-04-09T04:34:49;92720.00;;;3.14;100.00
6204;BME280;3135;42.602;23.468;2023-04-09T04:37:14;92710.06;;;3.21;100.00
6204;BME280;3135;42.602;23.468;2023-04-09T04:39:40;92720.25;;;3.34;100.00
6204;BME280;3135;42.602;23.468;2023-04-09T04:42:05;92718.03;;;3.26;100.00
6204;BME280;3135;42.602;23.468;2023-04-09T04:44:31;92717.31;;;3.30;100.00
6204;BME280;3135;42.602;23.468;2023-04-09T04:46:56;92735.09;;;3.40;100.00
6204;BME280;3135;42.602;23.468;2023-04-09T04:49:22;92725.53;;;3.34;100.00
6204;BME280;3135;42.602;23.468;2023-04-09T04:51:47;92729.56;;;3.42;100.00
6204;BME280;3135;42.602;23.468;2023-04-09T04:54:12;92735.38;;;3.66;100.00
6204;BME280;3135;42.602;23.468;2023-04-09T04:56:38;92724.44;;;3.57;100.00
6204;BME280;3135;42.602;23.468;2023-04-09T04:59:03;92752.91;;;3.72;100.00
6204;BME280;3135;42.602;23.468;2023-04-09T05:01:29;92734.53;;;3.60;100.00
6204;BME280;3135;42.602;23.468;2023-04-09T05:03:54;92730.41;;;3.69;100.00
6204;BME280;3135;42.602;23.468;2023-04-09T05:06:20;92743.13;;;3.72;100.00
6204;BME280;3135;42.602;23.468;2023-04-09T05:08:45;92735.63;;;3.64;100.00
6204;BME280;3135;42.602;23.468;2023-04-09T05:11:11;92734.47;;;3.77;100.00
6204;BME280;3135;42.602;23.468;2023-04-09T05:13:37;92739.41;;;3.95;100.00
6204;BME280;3135;42.602;23.468;2023-04-09T05:16:02;92734.28;;;4.16;100.00
6204;BME280;3135;42.602;23.468;2023-04-09T05:18:28;92741.56;;;4.03;100.00
6204;BME280;3135;42.602;23.468;2023-04-09T05:20:53;92725.13;;;3.96;100.00
6204;BME280;3135;42.602;23.468;2023-04-09T05:23:19;92727.16;;;3.89;100.00
6204;BME280;3135;42.602;23.468;2023-04-09T05:25:44;92734.66;;;3.97;100.00
6204;BME280;3135;42.602;23.468;2023-04-09T05:28:09;92734.56;;;3.87;100.00
6204;BME280;3135;42.602;23.468;2023-04-09T05:30:35;92736.75;;;3.95;100.00
6204;BME280;3135;42.602;23.468;2023-04-09T05:33:01;92750.22;;;4.21;100.00
6204;BME280;3135;42.602;23.468;2023-04-09T05:35:26;92750.56;;;4.02;100.00
6204;BME280;3135;42.602;23.468;2023-04-09T05:37:51;92744.69;;;4.27;100.00
6204;BME280;3135;42.602;23.468;2023-04-09T05:40:17;92727.41;;;4.15;100.00
6204;BME280;3135;42.602;23.468;2023-04-09T05:42:42;92733.31;;;4.27;100.00
6204;BME280;3135;42.602;23.468;2023-04-09T05:45:08;92751.72;;;4.44;100.00
6204;BME280;3135;42.602;23.468;2023-04-09T05:47:34;92746.03;;;4.25;100.00
6204;BME280;3135;42.602;23.468;2023-04-09T05:49:59;92730.91;;;4.20;100.00
6204;BME280;3135;42.602;23.468;2023-04-09T05:52:24;92742.41;;;4.36;100.00
6204;BME280;3135;42.602;23.468;2023-04-09T05:54:50;92741.19;;;4.49;100.00
6204;BME280;3135;42.602;23.468;2023-04-09T05:57:16;92738.88;;;4.57;100.00
6204;BME280;3135;42.602;23.468;2023-04-09T05:59:42;92746.41;;;4.76;100.00
6204;BME280;3135;42.602;23.468;2023-04-09T06:02:07;92762.72;;;4.63;100.00
6204;BME280;3135;42.602;23.468;2023-04-09T06:04:33;92748.97;;;4.66;100.00
6204;BME280;3135;42.602;23.468;2023-04-09T06:06:58;92747.41;;;4.70;100.00
6204;BME280;3135;42.602;23.468;2023-04-09T06:09:25;92749.53;;;4.68;100.00
6204;BME280;3135;42.602;23.468;2023-04-09T06:11:51;92742.03;;;4.54;100.00
6204;BME280;3135;42.602;23.468;2023-04-09T06:14:17;92744.38;;;4.51;100.00
6204;BME280;3135;42.602;23.468;2023-04-09T06:16:42;92743.88;;;4.54;100.00
6204;BME280;3135;42.602;23.468;2023-04-09T06:19:08;92763.94;;;4.82;100.00
6204;BME280;3135;42.602;23.468;2023-04-09T06:21:33;92753.84;;;4.79;100.00
6204;BME280;3135;42.602;23.468;2023-04-09T06:23:58;92755.47;;;4.85;100.00
6204;BME280;3135;42.602;23.468;2023-04-09T06:26:24;92731.31;;;4.71;100.00
6204;BME280;3135;42.602;23.468;2023-04-09T06:28:49;92759.81;;;5.01;100.00
6204;BME280;3135;42.602;23.468;2023-04-09T06:31:15;92759.50;;;4.98;100.00
6204;BME280;3135;42.602;23.468;2023-04-09T06:33:40;92757.66;;;4.98;100.00
6204;BME280;3135;42.602;23.468;2023-04-09T06:36:06;92764.44;;;5.21;100.00
6204;BME280;3135;42.602;23.468;2023-04-09T06:38:31;92762.13;;;5.35;100.00
6204;BME280;3135;42.602;23.468;2023-04-09T06:40:57;92763.03;;;5.56;100.00
6204;BME280;3135;42.602;23.468;2023-04-09T06:43:22;92769.19;;;5.77;100.00
6204;BME280;3135;42.602;23.468;2023-04-09T06:45:48;92783.28;;;5.87;100.00
6204;BME280;3135;42.602;23.468;2023-04-09T06:48:13;92776.66;;;5.90;100.00
6204;BME280;3135;42.602;23.468;2023-04-09T06:50:39;92785.13;;;5.87;100.00
6204;BME280;3135;42.602;23.468;2023-04-09T06:53:05;92796.63;;;5.98;100.00
6204;BME280;3135;42.602;23.468;2023-04-09T06:55:31;92781.72;;;5.92;100.00
6204;BME280;3135;42.602;23.468;2023-04-09T06:57:56;92782.75;;;5.85;100.00
6204;BME280;3135;42.602;23.468;2023-04-09T07:00:22;92780.88;;;5.86;100.00
6204;BME280;3135;42.602;23.468;2023-04-09T07:02:48;92784.59;;;5.80;100.00
6204;BME280;3135;42.602;23.468;2023-04-09T07:05:13;92789.63;;;5.81;100.00
6204;BME280;3135;42.602;23.468;2023-04-09T07:07:38;92783.03;;;5.89;100.00
6204;BME280;3135;42.602;23.468;2023-04-09T07:10:04;92787.53;;;5.83;100.00
6204;BME280;3135;42.602;23.468;2023-04-09T07:12:32;92795.91;;;5.60;100.00
6204;BME280;3135;42.602;23.468;2023-04-09T07:15:04;92813.44;;;5.71;100.00
6204;BME280;3135;42.602;23.468;2023-04-09T07:17:30;92791.47;;;5.76;100.00
6204;BME280;3135;42.602;23.468;2023-04-09T07:19:56;92796.28;;;5.89;100.00
6204;BME280;3135;42.602;23.468;2023-04-09T07:22:24;92803.13;;;5.70;100.00
6204;BME280;3135;42.602;23.468;2023-04-09T07:24:52;92788.78;;;5.71;100.00
6204;BME280;3135;42.602;23.468;2023-04-09T07:27:25;92803.78;;;5.50;100.00
6204;BME280;3135;42.602;23.468;2023-04-09T07:29:55;92814.16;;;5.51;100.00
6204;BME280;3135;42.602;23.468;2023-04-09T07:32:21;92791.03;;;5.36;100.00
6204;BME280;3135;42.602;23.468;2023-04-09T07:34:46;92810.47;;;5.57;100.00
6204;BME280;3135;42.602;23.468;2023-04-09T07:37:12;92812.50;;;5.45;100.00
6204;BME280;3135;42.602;23.468;2023-04-09T07:39:37;92802.88;;;5.24;100.00
6204;BME280;3135;42.602;23.468;2023-04-09T07:42:03;92792.59;;;5.32;100.00
6204;BME280;3135;42.602;23.468;2023-04-09T07:44:35;92812.06;;;5.63;100.00
6204;BME280;3135;42.602;23.468;2023-04-09T07:47:05;92813.56;;;5.44;100.00
6204;BME280;3135;42.602;23.468;2023-04-09T07:49:31;92792.75;;;5.16;100.00
6204;BME280;3135;42.602;23.468;2023-04-09T07:51:58;92819.16;;;5.48;100.00
6204;BME280;3135;42.602;23.468;2023-04-09T07:54:24;92820.53;;;5.55;100.00
6204;BME280;3135;42.602;23.468;2023-04-09T07:56:50;92814.06;;;5.36;100.00
6204;BME280;3135;42.602;23.468;2023-04-09T07:59:15;92814.31;;;5.34;100.00
6204;BME280;3135;42.602;23.468;2023-04-09T08:01:41;92827.41;;;5.51;100.00
6204;BME280;3135;42.602;23.468;2023-04-09T08:04:07;92786.53;;;5.42;100.00
6204;BME280;3135;42.602;23.468;2023-04-09T08:06:32;92813.53;;;5.39;100.00
6204;BME280;3135;42.602;23.468;2023-04-09T08:08:58;92817.88;;;5.55;100.00
6204;BME280;3135;42.602;23.468;2023-04-09T08:11:23;92820.75;;;5.49;100.00
6204;BME280;3135;42.602;23.468;2023-04-09T08:13:54;92836.22;;;5.67;100.00
6204;BME280;3135;42.602;23.468;2023-04-09T08:16:20;92826.38;;;5.57;100.00
6204;BME280;3135;42.602;23.468;2023-04-09T08:18:47;92819.03;;;5.75;100.00
6204;BME280;3135;42.602;23.468;2023-04-09T08:21:13;92830.91;;;6.25;100.00
6204;BME280;3135;42.602;23.468;2023-04-09T08:23:39;92829.59;;;6.32;100.00
6204;BME280;3135;42.602;23.468;2023-04-09T08:26:04;92840.53;;;6.46;100.00
6204;BME280;3135;42.602;23.468;2023-04-09T08:28:30;92826.69;;;6.34;100.00
6204;BME280;3135;42.602;23.468;2023-04-09T08:30:55;92812.59;;;6.18;100.00
6204;BME280;3135;42.602;23.468;2023-04-09T08:33:21;92822.69;;;6.26;100.00
6204;BME280;3135;42.602;23.468;2023-04-09T08:35:46;92838.44;;;6.74;100.00
6204;BME280;3135;42.602;23.468;2023-04-09T08:38:12;92819.84;;;6.79;100.00
6204;BME280;3135;42.602;23.468;2023-04-09T08:40:37;92808.91;;;6.34;100.00
6204;BME280;3135;42.602;23.468;2023-04-09T08:43:04;92822.50;;;6.79;100.00
6204;BME280;3135;42.602;23.468;2023-04-09T08:45:31;92815.34;;;6.69;100.00
6204;BME280;3135;42.602;23.468;2023-04-09T08:47:56;92803.41;;;6.92;100.00
6204;BME280;3135;42.602;23.468;2023-04-09T08:50:27;92823.31;;;6.74;100.00
6204;BME280;3135;42.602;23.468;2023-04-09T08:52:53;92811.09;;;7.04;100.00
6204;BME280;3135;42.602;23.468;2023-04-09T08:55:20;92817.72;;;7.22;100.00
6204;BME280;3135;42.602;23.468;2023-04-09T08:57:46;92825.94;;;7.30;100.00
6204;BME280;3135;42.602;23.468;2023-04-09T09:00:12;92806.03;;;7.17;100.00
6204;BME280;3135;42.602;23.468;2023-04-09T09:02:38;92809.47;;;7.18;100.00
6204;BME280;3135;42.602;23.468;2023-04-09T09:05:04;92796.19;;;7.18;100.00
6204;BME280;3135;42.602;23.468;2023-04-09T09:07:30;92797.50;;;7.31;100.00
6204;BME280;3135;42.602;23.468;2023-04-09T09:10:00;92811.88;;;7.25;100.00
6204;BME280;3135;42.602;23.468;2023-04-09T09:12:40;92805.22;;;7.27;100.00
6204;BME280;3135;42.602;23.468;2023-04-09T09:15:25;92799.06;;;7.42;100.00
6204;BME280;3135;42.602;23.468;2023-04-09T09:17:57;92811.81;;;7.50;100.00
6204;BME280;3135;42.602;23.468;2023-04-09T09:20:23;92813.44;;;7.41;100.00
6204;BME280;3135;42.602;23.468;2023-04-09T09:22:50;92807.03;;;7.42;100.00
6204;BME280;3135;42.602;23.468;2023-04-09T09:25:16;92788.94;;;7.54;100.00
6204;BME280;3135;42.602;23.468;2023-04-09T09:27:42;92777.91;;;7.91;100.00
6204;BME280;3135;42.602;23.468;2023-04-09T09:30:08;92784.94;;;8.22;100.00
6204;BME280;3135;42.602;23.468;2023-04-09T09:32:44;92770.59;;;8.17;100.00
6204;BME280;3135;42.602;23.468;2023-04-09T09:35:10;92778.16;;;7.90;100.00
6204;BME280;3135;42.602;23.468;2023-04-09T09:37:35;92772.31;;;7.93;100.00
6204;BME280;3135;42.602;23.468;2023-04-09T09:40:01;92779.56;;;8.32;100.00
6204;BME280;3135;42.602;23.468;2023-04-09T09:42:26;92762.88;;;8.16;100.00
6204;BME280;3135;42.602;23.468;2023-04-09T09:44:53;92793.66;;;8.42;100.00
6204;BME280;3135;42.602;23.468;2023-04-09T09:47:20;92788.13;;;8.73;100.00
6204;BME280;3135;42.602;23.468;2023-04-09T09:49:48;92778.56;;;9.01;100.00
6204;BME280;3135;42.602;23.468;2023-04-09T09:52:14;92762.88;;;9.29;100.00
6204;BME280;3135;42.602;23.468;2023-04-09T09:54:42;92778.53;;;9.59;100.00
6204;BME280;3135;42.602;23.468;2023-04-09T09:57:11;92760.84;;;9.44;100.00
6204;BME280;3135;42.602;23.468;2023-04-09T09:59:41;92768.63;;;9.65;100.00
6204;BME280;3135;42.602;23.468;2023-04-09T10:02:17;92761.84;;;9.48;100.00
6204;BME280;3135;42.602;23.468;2023-04-09T10:04:43;92765.97;;;9.65;100.00
6204;BME280;3135;42.602;23.468;2023-04-09T10:07:09;92729.13;;;9.67;100.00
6204;BME280;3135;42.602;23.468;2023-04-09T10:09:40;92761.72;;;10.07;100.00
6204;BME280;3135;42.602;23.468;2023-04-09T10:12:08;92767.88;;;10.31;100.00
6204;BME280;3135;42.602;23.468;2023-04-09T10:14:36;92747.50;;;10.35;100.00
6204;BME280;3135;42.602;23.468;2023-04-09T10:17:02;92733.22;;;10.45;100.00
6204;BME280;3135;42.602;23.468;2023-04-09T10:19:29;92748.31;;;10.36;100.00
6204;BME280;3135;42.602;23.468;2023-04-09T10:21:59;92749.16;;;10.31;100.00
6204;BME280;3135;42.602;23.468;2023-04-09T10:24:28;92746.00;;;10.05;100.00
6204;BME280;3135;42.602;23.468;2023-04-09T10:26:56;92751.78;;;9.69;100.00
6204;BME280;3135;42.602;23.468;2023-04-09T10:29:33;92743.84;;;9.83;100.00
6204;BME280;3135;42.602;23.468;2023-04-09T10:32:05;92757.31;;;9.49;100.00
6204;BME280;3135;42.602;23.468;2023-04-09T10:34:39;92745.97;;;9.38;100.00
6204;BME280;3135;42.602;23.468;2023-04-09T10:37:07;92739.06;;;9.08;97.66
6204;BME280;3135;42.602;23.468;2023-04-09T10:39:38;92741.66;;;9.42;98.07
6204;BME280;3135;42.602;23.468;2023-04-09T10:42:07;92739.72;;;9.48;99.30
6204;BME280;3135;42.602;23.468;2023-04-09T10:44:38;92746.59;;;9.54;99.93
6204;BME280;3135;42.602;23.468;2023-04-09T10:47:07;92738.22;;;9.13;100.00
6204;BME280;3135;42.602;23.468;2023-04-09T10:49:38;92738.00;;;9.09;100.00
6204;BME280;3135;42.602;23.468;2023-04-09T10:52:07;92751.59;;;9.37;99.40
6204;BME280;3135;42.602;23.468;2023-04-09T10:54:36;92741.53;;;9.53;100.00
6204;BME280;3135;42.602;23.468;2023-04-09T10:59:38;92713.97;;;9.62;97.62
6204;BME280;3135;42.602;23.468;2023-04-09T11:02:09;92738.31;;;9.56;95.83
6204;BME280;3135;42.602;23.468;2023-04-09T11:07:46;92708.78;;;10.52;92.54
6204;BME280;3135;42.602;23.468;2023-04-09T11:10:11;92711.88;;;10.91;92.94
6204;BME280;3135;42.602;23.468;2023-04-09T11:12:37;92727.28;;;10.99;87.28
6204;BME280;3135;42.602;23.468;2023-04-09T11:15:03;92709.16;;;10.45;86.35
6204;BME280;3135;42.602;23.468;2023-04-09T11:17:28;92724.19;;;10.41;86.88
6204;BME280;3135;42.602;23.468;2023-04-09T11:19:55;92719.63;;;10.60;85.06
6204;BME280;3135;42.602;23.468;2023-04-09T11:22:20;92711.06;;;10.20;83.80
6204;BME280;3135;42.602;23.468;2023-04-09T11:24:46;92716.94;;;10.22;82.76
6204;BME280;3135;42.602;23.468;2023-04-09T11:27:12;92686.63;;;10.13;85.10
6204;BME280;3135;42.602;23.468;2023-04-09T11:29:38;92727.06;;;10.26;86.02
6204;BME280;3135;42.602;23.468;2023-04-09T11:32:04;92711.13;;;9.96;84.56
6204;BME280;3135;42.602;23.468;2023-04-09T11:34:30;92724.06;;;10.08;84.14
6204;BME280;3135;42.602;23.468;2023-04-09T11:36:55;92712.13;;;9.82;83.68
6204;BME280;3135;42.602;23.468;2023-04-09T11:39:23;92693.03;;;9.93;83.95
6204;BME280;3135;42.602;23.468;2023-04-09T11:41:48;92712.25;;;10.33;83.94
6204;BME280;3135;42.602;23.468;2023-04-09T11:44:14;92713.25;;;10.56;82.48
6204;BME280;3135;42.602;23.468;2023-04-09T11:46:41;92712.63;;;10.45;82.17
6204;BME280;3135;42.602;23.468;2023-04-09T11:49:07;92709.16;;;10.45;82.40
6204;BME280;3135;42.602;23.468;2023-04-09T11:51:33;92719.63;;;10.60;82.73
6204;BME280;3135;42.602;23.468;2023-04-09T11:54:06;92704.84;;;10.82;83.23
6204;BME280;3135;42.602;23.468;2023-04-09T11:56:32;92713.66;;;10.82;81.69
6204;BME280;3135;42.602;23.468;2023-04-09T11:59:00;92693.19;;;10.59;82.95
6204;BME280;3135;42.602;23.468;2023-04-09T12:01:30;92694.19;;;10.44;81.99
6204;BME280;3135;42.602;23.468;2023-04-09T12:03:57;92695.13;;;10.53;82.19
6204;BME280;3135;42.602;23.468;2023-04-09T12:06:22;92679.19;;;10.29;82.66
6204;BME280;3135;42.602;23.468;2023-04-09T12:08:57;92685.66;;;10.61;82.63
6204;BME280;3135;42.602;23.468;2023-04-09T12:11:30;92693.44;;;10.76;81.33
6204;BME280;3135;42.602;23.468;2023-04-09T12:14:00;92702.72;;;10.65;80.34
6204;BME280;3135;42.602;23.468;2023-04-09T12:16:31;92698.41;;;10.50;82.49
6204;BME280;3135;42.602;23.468;2023-04-09T12:19:06;92696.03;;;10.81;83.19
6204;BME280;3135;42.602;23.468;2023-04-09T12:21:51;92694.56;;;10.89;83.97
6204;BME280;3135;42.602;23.468;2023-04-09T12:24:20;92706.00;;;11.08;86.80
6204;BME280;3135;42.602;23.468;2023-04-09T12:26:46;92693.47;;;10.90;85.99
6204;BME280;3135;42.602;23.468;2023-04-09T12:29:16;92694.47;;;10.94;86.99
6204;BME280;3135;42.602;23.468;2023-04-09T12:31:42;92687.31;;;10.75;86.67
6204;BME280;3135;42.602;23.468;2023-04-09T12:34:08;92688.00;;;10.81;87.82
6204;BME280;3135;42.602;23.468;2023-04-09T12:36:33;92649.13;;;10.56;87.17
6204;BME280;3135;42.602;23.468;2023-04-09T12:38:59;92672.50;;;10.97;88.80
6204;BME280;3135;42.602;23.468;2023-04-09T12:41:25;92686.00;;;11.06;84.85
6204;BME280;3135;42.602;23.468;2023-04-09T12:43:50;92677.31;;;11.27;84.74
6204;BME280;3135;42.602;23.468;2023-04-09T12:46:19;92682.97;;;11.40;85.11
6204;BME280;3135;42.602;23.468;2023-04-09T12:48:45;92668.38;;;11.18;85.13
6204;BME280;3135;42.602;23.468;2023-04-09T12:51:14;92680.06;;;11.22;84.81
6204;BME280;3135;42.602;23.468;2023-04-09T12:53:40;92672.78;;;10.95;85.93
6204;BME280;3135;42.602;23.468;2023-04-09T12:56:06;92680.06;;;11.09;85.95
6204;BME280;3135;42.602;23.468;2023-04-09T12:58:31;92675.13;;;11.16;85.13
6204;BME280;3135;42.602;23.468;2023-04-09T13:00:57;92658.28;;;11.15;85.36
6204;BME280;3135;42.602;23.468;2023-04-09T13:03:23;92669.13;;;11.05;84.88
6204;BME280;3135;42.602;23.468;2023-04-09T13:05:50;92659.81;;;10.56;86.24
6204;BME280;3135;42.602;23.468;2023-04-09T13:08:15;92650.50;;;10.54;86.22
6204;BME280;3135;42.602;23.468;2023-04-09T13:10:41;92663.91;;;10.67;85.41
6204;BME280;3135;42.602;23.468;2023-04-09T13:13:07;92643.31;;;10.54;85.42
6204;BME280;3135;42.602;23.468;2023-04-09T13:15:40;92668.28;;;10.63;85.61
6204;BME280;3135;42.602;23.468;2023-04-09T13:18:10;92653.38;;;10.57;86.95
6204;BME280;3135;42.602;23.468;2023-04-09T13:20:35;92665.91;;;10.43;87.33